Time;durP1;ratioP1;P1;durP2;ratioP2;P2;SDS_P1;SDS_P2;PMS_P1;PMS_P2;Temp;Humidity;BMP_temperature;BMP_pressure;BME280_temperature;BME280_humidity;BME280_pressure;Samples;Min_cycle;Max_cycle;Signal;HPM_P1;HPM_P2
2022/09/17 00:01:41;;;;;;;8.98;1.95;;;;;;;11.62;77.28;101244.50;6120044;23;20010;-92
2022/09/17 00:04:08;;;;;;;7.47;1.48;;;;;;;11.73;77.20;101255.53;6120258;23;20101;-92
2022/09/17 00:06:35;;;;;;;8.93;1.67;;;;;;;11.79;76.77;101269.47;6120983;23;20014;-92
2022/09/17 00:09:01;;;;;;;8.85;1.70;;;;;;;11.77;76.05;101264.25;6120364;23;20010;-93
2022/09/17 00:11:30;;;;;;;6.47;2.10;;;;;;;11.79;76.32;101274.78;6121054;23;20009;-92
2022/09/17 00:13:58;;;;;;;9.68;1.67;;;;;;;11.83;76.60;101273.78;6119279;23;20441;-93
2022/09/17 00:16:33;;;;;;;6.70;1.70;;;;;;;11.92;75.72;101281.38;6119429;23;20060;-92
2022/09/17 00:18:59;;;;;;;8.23;1.30;;;;;;;11.90;75.52;101281.44;6119522;23;20496;-92
2022/09/17 00:21:25;;;;;;;7.47;1.48;;;;;;;11.93;75.56;101288.38;6120739;23;20037;-92
2022/09/17 00:23:59;;;;;;;11.73;1.98;;;;;;;11.90;75.64;101273.47;6120396;23;20029;-92
2022/09/17 00:26:25;;;;;;;8.70;1.88;;;;;;;11.84;75.44;101257.81;6122375;23;20006;-92
2022/09/17 00:28:52;;;;;;;8.68;1.58;;;;;;;11.86;75.43;101265.72;6120622;23;20029;-92
2022/09/17 00:31:18;;;;;;;6.50;1.25;;;;;;;11.92;75.78;101274.28;6121083;23;20442;-92
2022/09/17 00:33:43;;;;;;;6.43;1.75;;;;;;;11.96;75.59;101277.69;6118856;23;20085;-92
2022/09/17 00:36:09;;;;;;;8.02;1.55;;;;;;;11.96;75.17;101280.31;6122708;23;20080;-92
2022/09/17 00:38:34;;;;;;;8.35;1.30;;;;;;;11.95;74.99;101270.66;6119510;23;20010;-92
2022/09/17 00:41:01;;;;;;;9.60;1.35;;;;;;;11.97;74.95;101280.25;6120713;23;20040;-92
2022/09/17 00:43:35;;;;;;;6.60;1.17;;;;;;;12.03;74.76;101288.88;6119784;23;20503;-92
2022/09/17 00:46:02;;;;;;;5.35;1.05;;;;;;;11.97;74.18;101277.59;6119952;23;20013;-90
2022/09/17 00:48:27;;;;;;;4.60;1.15;;;;;;;11.99;75.10;101278.44;6120638;23;20049;-91
2022/09/17 00:50:55;;;;;;;7.03;1.20;;;;;;;11.98;74.53;101275.81;6120994;23;20061;-91
2022/09/17 00:53:21;;;;;;;9.93;1.35;;;;;;;12.00;75.28;101290.75;6120161;23;20227;-92
2022/09/17 00:56:10;;;;;;;10.50;1.38;;;;;;;12.03;74.54;101281.81;6118967;23;20060;-91
2022/09/17 00:58:36;;;;;;;2.97;1.15;;;;;;;12.02;74.45;101280.06;6120391;23;20036;-92
2022/09/17 01:01:01;;;;;;;8.65;1.20;;;;;;;11.99;74.51;101278.44;6117511;23;20041;-91
2022/09/17 01:03:27;;;;;;;6.00;1.10;;;;;;;12.05;74.42;101298.53;6119650;23;20002;-91
2022/09/17 01:06:08;;;;;;;7.47;1.23;;;;;;;12.03;74.18;101300.38;6119232;23;20065;-92
2022/09/17 01:09:08;;;;;;;7.70;1.67;;;;;;;12.07;74.06;101301.09;6144633;23;20058;-92
2022/09/17 01:12:05;;;;;;;5.95;1.10;;;;;;;12.05;74.38;101298.53;6118515;23;20237;-92
2022/09/17 01:15:02;;;;;;;8.13;1.10;;;;;;;11.97;74.15;101292.66;6108216;23;20017;-92
2022/09/17 01:17:33;;;;;;;10.48;1.00;;;;;;;11.94;74.76;101284.84;6119016;23;20021;-91
2022/09/17 01:20:20;;;;;;;6.20;1.38;;;;;;;11.97;74.69;101292.66;6117999;23;20013;-92
2022/09/17 01:23:06;;;;;;;5.43;1.50;;;;;;;12.00;74.54;101298.69;6119683;23;20020;-93
2022/09/17 01:26:04;;;;;;;5.70;1.20;;;;;;;12.03;74.30;101315.38;6120955;23;20029;-92
2022/09/17 01:28:42;;;;;;;8.70;1.13;;;;;;;11.96;74.81;101307.69;6119623;23;20046;-93
2022/09/17 01:31:24;;;;;;;7.70;0.98;;;;;;;12.00;74.57;101322.53;6119651;23;20001;-92
2022/09/17 01:34:26;;;;;;;7.15;1.70;;;;;;;12.02;74.76;101314.53;6119133;23;20346;-91
2022/09/17 01:37:31;;;;;;;9.02;1.38;;;;;;;12.07;74.20;101317.00;6100508;23;20005;-91
2022/09/17 01:39:57;;;;;;;6.57;1.40;;;;;;;12.00;75.62;101319.03;6007597;23;20014;-90
2022/09/17 01:42:44;;;;;;;8.32;1.60;;;;;;;11.95;75.01;101303.31;6098973;23;20035;-91
2022/09/17 01:45:20;;;;;;;11.55;1.40;;;;;;;11.97;74.88;101329.75;6120202;23;20006;-92
2022/09/17 01:47:56;;;;;;;5.30;1.15;;;;;;;11.97;74.96;101322.66;6121075;23;20010;-91
2022/09/17 01:50:29;;;;;;;7.20;1.90;;;;;;;11.94;75.14;101313.97;6120786;23;20009;-91
2022/09/17 01:52:56;;;;;;;10.85;1.40;;;;;;;11.97;75.08;101327.94;6119968;23;20469;-92
2022/09/17 01:55:28;;;;;;;9.27;1.20;;;;;;;11.92;75.37;101323.75;6117704;23;20009;-92
2022/09/17 01:58:04;;;;;;;4.43;1.30;;;;;;;11.92;75.20;101318.47;6120044;23;20037;-91
2022/09/17 02:00:30;;;;;;;6.32;1.30;;;;;;;11.82;75.72;101319.69;6118295;23;20463;-91
2022/09/17 02:03:04;;;;;;;6.95;1.48;;;;;;;11.79;75.80;101320.66;6118230;23;20081;-92
2022/09/17 02:05:43;;;;;;;7.68;1.50;;;;;;;11.68;75.86;101315.78;6117353;23;20010;-91
2022/09/17 02:08:16;;;;;;;6.40;1.00;;;;;;;11.69;76.16;101322.78;6119055;23;20002;-90
2022/09/17 02:10:48;;;;;;;9.73;1.50;;;;;;;11.59;76.14;101312.59;6120546;23;20002;-91
2022/09/17 02:13:20;;;;;;;9.32;1.75;;;;;;;11.60;76.32;101316.97;6119794;23;20014;-91
2022/09/17 02:15:55;;;;;;;8.93;1.40;;;;;;;11.67;76.42;101326.44;6120837;23;20052;-91
2022/09/17 02:18:36;;;;;;;4.82;1.35;;;;;;;11.71;76.43;101331.56;6118422;23;20013;-91
2022/09/17 02:21:15;;;;;;;7.78;1.02;;;;;;;11.75;76.29;101330.53;6118623;23;20347;-92
2022/09/17 02:23:56;;;;;;;5.43;1.38;;;;;;;11.70;76.45;101318.34;6143442;23;20001;-91
2022/09/17 02:26:25;;;;;;;10.40;1.42;;;;;;;11.69;76.56;101312.19;6118072;23;20100;-92
2022/09/17 02:28:55;;;;;;;7.15;1.35;;;;;;;11.78;76.40;101324.25;6119601;23;20102;-91
2022/09/17 02:31:21;;;;;;;6.22;1.20;;;;;;;11.82;75.93;101327.66;6119286;23;20017;-90
2022/09/17 02:33:50;;;;;;;4.78;1.73;;;;;;;11.80;76.28;101324.16;6117691;23;20009;-92
2022/09/17 02:36:17;;;;;;;8.02;1.20;;;;;;;11.77;76.43;101330.47;6118951;23;20010;-91
2022/09/17 02:38:44;;;;;;;5.03;1.27;;;;;;;11.72;76.38;101333.28;6119718;23;20073;-91
2022/09/17 02:41:15;;;;;;;5.50;1.63;;;;;;;11.73;76.16;101345.59;6118687;23;20006;-91
2022/09/17 02:43:43;;;;;;;7.82;1.27;;;;;;;11.71;76.20;101344.81;6119342;23;20002;-91
2022/09/17 02:46:22;;;;;;;5.20;1.50;;;;;;;11.66;76.56;101324.72;6118206;23;20453;-91
2022/09/17 02:49:33;;;;;;;4.90;0.98;;;;;;;11.71;75.85;101331.56;6094008;23;20453;-91
2022/09/17 02:52:04;;;;;;;7.40;1.27;;;;;;;11.71;76.42;101336.88;6122812;23;20033;-92
2022/09/17 02:54:56;;;;;;;7.95;1.30;;;;;;;11.69;76.15;101338.69;6117986;23;20041;-90
2022/09/17 02:57:41;;;;;;;7.15;1.48;;;;;;;11.68;75.77;101330.81;6119619;23;20006;-91
2022/09/17 03:00:16;;;;;;;6.28;1.33;;;;;;;11.69;76.41;101349.28;6118133;23;20002;-92
2022/09/17 03:02:52;;;;;;;5.95;1.10;;;;;;;11.67;76.38;101342.34;6117536;23;20457;-91
2022/09/17 03:05:20;;;;;;;9.18;1.42;;;;;;;11.59;76.45;101337.31;6120176;23;20484;-92
2022/09/17 03:07:46;;;;;;;12.15;1.35;;;;;;;11.58;77.18;101332.94;6118213;23;20017;-92
2022/09/17 03:10:12;;;;;;;7.80;1.38;;;;;;;11.58;76.91;101330.28;6120681;23;20005;-92
2022/09/17 03:12:38;;;;;;;5.03;1.02;;;;;;;11.58;77.22;101338.22;6118426;23;20073;-92
2022/09/17 03:15:04;;;;;;;7.90;1.35;;;;;;;11.63;77.29;101344.22;6120154;23;20350;-92
2022/09/17 03:17:30;;;;;;;7.30;1.73;;;;;;;11.52;77.12;101327.88;6117573;23;20522;-93
2022/09/17 03:19:55;;;;;;;9.05;1.38;;;;;;;11.55;77.25;101345.41;6118433;23;20037;-92
2022/09/17 03:22:21;;;;;;;7.82;1.10;;;;;;;11.43;77.38;101322.91;6120229;23;20029;-91
2022/09/17 03:24:46;;;;;;;5.95;1.17;;;;;;;11.47;77.93;101341.28;6118554;23;20415;-93
2022/09/17 03:27:11;;;;;;;8.77;2.17;;;;;;;11.37;77.37;101334.56;6118270;23;20005;-93
2022/09/17 03:29:37;;;;;;;5.20;1.02;;;;;;;11.30;77.46;101330.41;6114775;23;20014;-91
2022/09/17 03:32:02;;;;;;;5.22;1.30;;;;;;;11.30;77.70;101340.13;6116936;23;20450;-92
2022/09/17 03:34:28;;;;;;;5.60;1.40;;;;;;;11.16;77.83;101316.78;6117901;23;20017;-92
2022/09/17 03:36:53;;;;;;;7.68;1.17;;;;;;;11.16;78.00;101333.53;6118125;23;20002;-93
2022/09/17 03:39:18;;;;;;;6.22;2.28;;;;;;;11.06;77.83;101329.47;6119113;23;20048;-92
2022/09/17 03:41:44;;;;;;;9.60;1.27;;;;;;;11.01;78.26;101318.19;6119657;23;20005;-93
2022/09/17 03:44:09;;;;;;;5.70;0.98;;;;;;;10.96;77.72;101320.13;6120102;23;20006;-92
2022/09/17 03:46:35;;;;;;;1.67;0.60;;;;;;;10.98;77.70;101331.53;6118073;23;20010;-93
2022/09/17 03:49:00;;;;;;;5.82;1.40;;;;;;;10.90;77.70;101318.53;6120313;23;20788;-92
2022/09/17 03:51:25;;;;;;;4.90;1.45;;;;;;;10.89;77.52;101313.31;6119213;23;20019;-92
2022/09/17 03:53:51;;;;;;;6.47;1.20;;;;;;;10.92;78.14;101332.59;6118564;23;20017;-92
2022/09/17 03:56:16;;;;;;;11.02;1.85;;;;;;;10.98;78.06;101350.03;6120611;23;20006;-92
2022/09/17 03:58:42;;;;;;;11.38;1.63;;;;;;;10.94;78.38;101338.69;6116079;23;20002;-93
2022/09/17 04:01:07;;;;;;;6.20;1.17;;;;;;;10.91;78.12;101333.53;6117443;23;20100;-92
2022/09/17 04:03:32;;;;;;;9.98;1.35;;;;;;;10.90;77.72;101333.56;6118064;23;20383;-93
2022/09/17 04:05:57;;;;;;;8.98;1.05;;;;;;;10.92;77.65;101353.75;6118867;23;20014;-92
2022/09/17 04:08:23;;;;;;;5.75;0.95;;;;;;;10.94;77.90;101349.28;6118295;23;20077;-92
2022/09/17 04:10:50;;;;;;;7.68;1.60;;;;;;;10.94;77.63;101359.84;6118813;23;20093;-93
2022/09/17 04:13:17;;;;;;;10.48;1.35;;;;;;;10.87;77.96;101350.41;6119264;23;20005;-93
2022/09/17 04:15:43;;;;;;;4.97;1.13;;;;;;;10.85;78.20;101360.16;6120036;23;20442;-92
2022/09/17 04:18:09;;;;;;;9.23;1.23;;;;;;;10.83;77.86;101358.50;6119279;23;20430;-92
2022/09/17 04:20:35;;;;;;;6.55;1.23;;;;;;;10.88;77.81;101364.50;6120822;23;20006;-92
2022/09/17 04:23:00;;;;;;;7.53;0.95;;;;;;;10.80;77.74;101353.28;6119963;23;20013;-93
2022/09/17 04:25:25;;;;;;;6.03;1.05;;;;;;;10.82;78.37;101362.03;6121011;23;20013;-92
2022/09/17 04:27:51;;;;;;;7.15;1.25;;;;;;;10.81;77.98;101353.22;6120580;23;20462;-93
2022/09/17 04:30:17;;;;;;;6.85;1.25;;;;;;;10.88;77.60;101364.50;6119398;23;20342;-92
2022/09/17 04:32:43;;;;;;;5.40;1.10;;;;;;;10.87;77.86;101363.63;6121818;23;20016;-93
2022/09/17 04:35:09;;;;;;;9.85;1.23;;;;;;;10.91;78.16;101367.03;6119712;23;20005;-93
2022/09/17 04:37:35;;;;;;;7.28;1.30;;;;;;;10.84;78.14;101361.09;6122445;23;20014;-93
2022/09/17 04:40:02;;;;;;;5.38;1.60;;;;;;;10.93;78.17;101363.41;6120688;23;20031;-93
2022/09/17 04:42:27;;;;;;;7.80;1.15;;;;;;;10.96;78.39;101368.63;6120581;23;20054;-93
2022/09/17 04:44:52;;;;;;;3.28;1.00;;;;;;;10.99;79.11;101362.34;6121575;23;20382;-94
2022/09/17 04:47:17;;;;;;;8.25;1.30;;;;;;;11.03;78.21;101358.69;6121017;23;20020;-92
2022/09/17 04:49:43;;;;;;;8.00;1.77;;;;;;;11.04;78.37;101360.41;6120873;23;20088;-93
2022/09/17 04:52:08;;;;;;;9.45;0.95;;;;;;;11.04;78.62;101355.13;6121427;23;20010;-92
2022/09/17 04:54:33;;;;;;;3.65;0.75;;;;;;;11.04;78.24;101360.41;6120998;23;20018;-91
2022/09/17 04:56:59;;;;;;;2.95;0.70;;;;;;;11.03;78.43;101350.75;6119416;23;20426;-93
2022/09/17 04:59:25;;;;;;;8.95;1.33;;;;;;;11.02;77.40;101353.47;6120928;23;20028;-92
2022/09/17 05:01:50;;;;;;;8.30;1.40;;;;;;;10.99;77.90;101357.06;6120131;23;20010;-92
2022/09/17 05:04:15;;;;;;;8.70;1.45;;;;;;;10.97;78.07;101364.19;6119434;23;20009;-92
2022/09/17 05:06:41;;;;;;;10.30;1.52;;;;;;;10.98;78.28;101371.22;6121872;23;20005;-92
2022/09/17 05:09:06;;;;;;;6.82;1.38;;;;;;;10.91;77.98;101370.56;6119832;23;20064;-92
2022/09/17 05:11:32;;;;;;;8.90;1.17;;;;;;;10.91;77.98;101367.03;6120133;23;20006;-92
2022/09/17 05:13:57;;;;;;;6.07;1.83;;;;;;;10.84;77.98;101361.09;6120805;23;20001;-91
2022/09/17 05:16:22;;;;;;;5.80;1.08;;;;;;;10.83;77.90;101362.00;6120400;23;20007;-92
2022/09/17 05:18:50;;;;;;;9.70;1.30;;;;;;;10.82;78.14;101368.22;6118081;23;20385;-92
2022/09/17 05:21:16;;;;;;;7.82;1.92;;;;;;;10.80;78.27;101367.38;6118103;23;20098;-91
2022/09/17 05:23:41;;;;;;;6.38;1.13;;;;;;;10.78;78.05;101382.44;6120091;23;20080;-92
2022/09/17 05:26:07;;;;;;;4.05;1.40;;;;;;;10.77;77.90;101382.47;6117959;23;20006;-92
2022/09/17 05:28:32;;;;;;;8.68;1.85;;;;;;;10.71;78.00;101378.25;6121138;23;20006;-91
2022/09/17 05:30:58;;;;;;;5.70;1.80;;;;;;;10.76;77.56;101381.63;6118924;23;20132;-91
2022/09/17 05:33:24;;;;;;;10.15;1.67;;;;;;;10.71;77.93;101381.75;6118251;23;20581;-90
2022/09/17 05:35:49;;;;;;;5.85;1.23;;;;;;;10.76;77.64;101393.97;6119112;23;20016;-91
2022/09/17 05:38:17;;;;;;;7.68;0.98;;;;;;;10.76;77.51;101397.47;6119183;23;20017;-91
2022/09/17 05:40:42;;;;;;;11.02;1.48;;;;;;;10.78;77.96;101398.31;6122030;23;20008;-92
2022/09/17 05:43:08;;;;;;;7.05;1.20;;;;;;;10.79;77.80;101399.19;6119783;23;19998;-91
2022/09/17 05:45:36;;;;;;;9.63;1.20;;;;;;;10.76;77.55;101396.63;6121345;23;20442;-92
2022/09/17 05:48:03;;;;;;;9.38;1.17;;;;;;;10.90;77.36;101407.63;6120077;23;20089;-92
2022/09/17 05:50:30;;;;;;;7.18;1.35;;;;;;;10.86;77.22;101390.13;6119431;23;20025;-91
2022/09/17 05:52:55;;;;;;;6.18;1.15;;;;;;;10.95;77.18;101406.56;6119732;23;20009;-92
2022/09/17 05:55:22;;;;;;;5.90;1.40;;;;;;;10.98;78.12;101408.25;6118710;23;20060;-93
2022/09/17 05:57:48;;;;;;;9.00;1.30;;;;;;;10.96;77.52;101404.78;6118938;23;20002;-92
2022/09/17 06:00:14;;;;;;;6.68;1.50;;;;;;;11.03;77.15;101408.94;6119259;23;20017;-92
2022/09/17 06:02:39;;;;;;;8.18;1.58;;;;;;;11.11;76.64;101417.50;6119663;23;20006;-92
2022/09/17 06:05:05;;;;;;;4.80;1.02;;;;;;;11.19;77.08;101422.53;6119645;23;20010;-93
2022/09/17 06:07:31;;;;;;;5.10;1.08;;;;;;;11.23;76.44;101424.16;6118402;23;20009;-91
2022/09/17 06:09:56;;;;;;;8.80;1.30;;;;;;;11.27;77.14;101438.16;6118572;23;20013;-92
2022/09/17 06:12:22;;;;;;;5.38;1.05;;;;;;;11.30;76.76;101436.28;6118644;23;20350;-92
2022/09/17 06:14:47;;;;;;;7.78;1.35;;;;;;;11.28;76.59;101422.22;6120005;23;20537;-92
2022/09/17 06:17:13;;;;;;;7.28;1.30;;;;;;;11.32;76.29;101430.94;6119487;23;20057;-91
2022/09/17 06:19:38;;;;;;;5.68;0.98;;;;;;;11.32;76.81;101429.16;6120634;23;20069;-92
2022/09/17 06:22:04;;;;;;;7.97;1.70;;;;;;;11.35;75.87;101422.91;6117069;23;20014;-92
2022/09/17 06:24:30;;;;;;;3.97;1.05;;;;;;;11.35;76.31;101417.59;6120796;23;20089;-91
2022/09/17 06:26:56;;;;;;;6.57;1.30;;;;;;;11.36;75.89;101419.31;6122082;23;20438;-91
2022/09/17 06:29:21;;;;;;;8.55;1.63;;;;;;;11.40;76.74;101431.53;6119084;23;20104;-92
2022/09/17 06:31:48;;;;;;;7.35;1.13;;;;;;;11.38;76.09;101428.09;6121409;23;20097;-92
2022/09/17 06:34:13;;;;;;;4.57;1.20;;;;;;;11.37;75.91;101432.50;6120492;23;20018;-92
2022/09/17 06:36:38;;;;;;;9.40;1.48;;;;;;;11.40;75.49;101432.41;6118750;23;20021;-92
2022/09/17 06:39:04;;;;;;;3.78;1.17;;;;;;;11.43;75.06;101437.59;6121223;23;20009;-92
2022/09/17 06:41:29;;;;;;;7.22;1.30;;;;;;;11.44;75.74;101435.81;6119732;23;20006;-92
2022/09/17 06:43:54;;;;;;;7.57;1.50;;;;;;;11.48;75.58;101432.16;6119961;23;20398;-91
2022/09/17 06:46:20;;;;;;;4.22;1.30;;;;;;;11.52;75.49;101412.59;6119614;23;20010;-92
2022/09/17 06:48:45;;;;;;;6.30;1.63;;;;;;;11.57;75.41;101413.31;6119866;23;20013;-92
2022/09/17 06:51:11;;;;;;;7.93;2.15;;;;;;;11.63;75.50;101426.31;6119434;23;20128;-92
2022/09/17 06:53:37;;;;;;;6.07;1.20;;;;;;;11.63;75.27;101414.88;6121664;23;20009;-91
2022/09/17 06:56:04;;;;;;;4.18;1.23;;;;;;;11.74;74.90;101429.44;6120706;23;20012;-92
2022/09/17 06:58:30;;;;;;;7.38;1.52;;;;;;;11.83;74.52;101422.13;6118371;23;20001;-92
2022/09/17 07:01:03;;;;;;;12.10;1.90;;;;;;;11.90;74.45;101424.50;6118591;23;20080;-92
2022/09/17 07:03:29;;;;;;;4.28;1.15;;;;;;;11.82;75.33;101401.81;6120905;23;20643;-91
2022/09/17 07:05:55;;;;;;;5.00;1.27;;;;;;;11.81;74.12;101419.50;6120189;23;20063;-91
2022/09/17 07:08:21;;;;;;;7.30;1.40;;;;;;;11.80;74.16;101424.84;6118613;23;20092;-91
2022/09/17 07:10:46;;;;;;;5.95;1.00;;;;;;;11.84;74.19;101434.44;6117677;23;20006;-91
2022/09/17 07:13:11;;;;;;;5.20;1.05;;;;;;;11.87;73.84;101423.75;6120259;23;20013;-90
2022/09/17 07:15:37;;;;;;;8.65;1.45;;;;;;;11.98;73.76;101446.31;6118414;23;20002;-90
2022/09/17 07:18:09;;;;;;;6.57;1.17;;;;;;;11.99;72.27;101425.97;6120043;23;20330;-90
2022/09/17 07:20:35;;;;;;;4.88;0.98;;;;;;;12.08;71.75;101432.72;6117755;23;20501;-89
2022/09/17 07:23:00;;;;;;;5.95;0.77;;;;;;;12.13;72.49;101434.28;6120694;23;20002;-89
2022/09/17 07:25:26;;;;;;;5.53;0.80;;;;;;;12.21;70.86;101436.63;6117005;23;20660;-90
2022/09/17 07:27:52;;;;;;;3.80;0.82;;;;;;;12.31;71.47;101437.13;6115450;23;20037;-89
2022/09/17 07:30:18;;;;;;;4.28;1.13;;;;;;;12.36;71.42;101436.06;6119005;23;20088;-89
2022/09/17 07:32:43;;;;;;;3.38;0.65;;;;;;;12.41;70.78;101431.44;6117746;23;20394;-89
2022/09/17 07:35:09;;;;;;;5.50;0.80;;;;;;;12.44;69.96;101426.00;6118772;23;20014;-89
2022/09/17 07:37:35;;;;;;;4.85;0.98;;;;;;;12.49;70.02;101432.00;6119579;23;20435;-90
2022/09/17 07:40:00;;;;;;;2.75;0.90;;;;;;;12.64;69.66;101440.31;6119995;23;20435;-89
2022/09/17 07:42:26;;;;;;;3.25;1.15;;;;;;;12.74;69.63;101431.06;6117984;23;20002;-89
2022/09/17 07:44:52;;;;;;;4.90;1.00;;;;;;;12.84;68.96;101424.44;6120939;23;20047;-89
2022/09/17 07:47:17;;;;;;;3.17;0.80;;;;;;;13.11;68.50;101443.69;6118301;23;20367;-89
2022/09/17 07:49:42;;;;;;;5.03;0.93;;;;;;;13.34;68.72;101432.16;6121843;23;20002;-88
2022/09/17 07:52:08;;;;;;;2.60;0.60;;;;;;;13.75;66.61;101440.97;6121573;23;20069;-88
2022/09/17 07:54:36;;;;;;;4.35;1.00;;;;;;;14.10;66.13;101435.91;6122628;23;20009;-87
2022/09/17 07:57:02;;;;;;;6.43;1.00;;;;;;;14.33;65.48;101418.91;6119283;23;20009;-87
2022/09/17 07:59:27;;;;;;;4.90;1.00;;;;;;;14.56;64.83;101436.47;6121181;23;20013;-87
2022/09/17 08:01:52;;;;;;;4.28;0.90;;;;;;;14.70;64.57;101427.84;6119579;23;20053;-87
2022/09/17 08:04:18;;;;;;;5.38;0.90;;;;;;;14.84;63.32;101424.50;6121459;23;20006;-87
2022/09/17 08:06:47;;;;;;;6.45;1.02;;;;;;;15.04;62.98;101432.38;6120564;23;20029;-89
2022/09/17 08:09:14;;;;;;;3.97;0.95;;;;;;;15.27;62.15;101444.56;6118464;23;20040;-87
2022/09/17 08:11:40;;;;;;;4.50;0.90;;;;;;;15.48;60.85;101437.25;6120197;23;20383;-87
2022/09/17 08:14:08;;;;;;;6.10;0.90;;;;;;;15.65;59.17;101433.78;6121786;23;20898;-86
2022/09/17 08:16:33;;;;;;;3.58;0.73;;;;;;;15.77;58.29;101439.34;6118760;23;20466;-85
2022/09/17 08:18:59;;;;;;;4.07;0.90;;;;;;;16.03;58.86;101440.59;6120327;23;20072;-86
2022/09/17 08:21:24;;;;;;;4.80;0.70;;;;;;;16.20;57.08;101442.38;6118825;23;20104;-86
2022/09/17 08:23:49;;;;;;;4.00;0.70;;;;;;;16.17;57.62;101437.19;6120520;23;20442;-87
2022/09/17 08:26:17;;;;;;;4.57;1.25;;;;;;;16.04;57.78;101441.47;6119400;23;20088;-87
2022/09/17 08:28:51;;;;;;;4.13;0.80;;;;;;;16.03;57.43;101432.59;6120640;23;20002;-86
2022/09/17 08:31:18;;;;;;;4.65;0.90;;;;;;;16.41;56.93;101443.00;6119454;23;20125;-86
2022/09/17 08:33:44;;;;;;;6.78;1.17;;;;;;;16.58;57.06;101436.75;6122666;23;20434;-86
2022/09/17 08:36:11;;;;;;;5.82;0.90;;;;;;;17.13;57.33;101447.00;6117517;23;20283;-85
2022/09/17 08:38:37;;;;;;;4.70;0.85;;;;;;;17.62;55.70;101443.25;6121138;23;20006;-86
2022/09/17 08:41:09;;;;;;;3.05;0.70;;;;;;;18.20;54.06;101443.25;6121183;23;20658;-86
2022/09/17 08:43:40;;;;;;;5.22;0.63;;;;;;;18.43;54.10;101428.41;6121354;23;20005;-86
2022/09/17 08:46:09;;;;;;;6.57;0.90;;;;;;;18.84;53.67;101441.84;6119011;23;20108;-86
2022/09/17 08:48:41;;;;;;;2.55;0.80;;;;;;;19.17;53.12;101451.31;6119150;23;20033;-86
2022/09/17 08:51:47;;;;;;;5.45;1.15;;;;;;;19.21;52.56;101450.16;6119503;23;20029;-86
2022/09/17 08:54:30;;;;;;;4.72;0.57;;;;;;;19.50;50.91;101439.28;6030594;23;20319;-91
2022/09/17 08:57:16;;;;;;;3.55;0.73;;;;;;;20.05;50.63;101443.50;6117951;23;20430;-85
2022/09/17 08:59:53;;;;;;;5.25;0.95;;;;;;;19.99;48.10;101442.13;6119051;23;20029;-86
2022/09/17 09:02:47;;;;;;;4.93;1.05;;;;;;;20.19;49.10;101438.06;6117484;23;20017;-86
2022/09/17 09:05:21;;;;;;;4.72;0.90;;;;;;;20.06;48.47;101434.53;6120364;23;20516;-87
2022/09/17 09:07:52;;;;;;;3.85;0.75;;;;;;;19.74;48.50;101445.69;6119371;23;20043;-88
2022/09/17 09:10:22;;;;;;;4.80;0.90;;;;;;;19.32;48.78;101452.97;6120841;23;20228;-90
2022/09/17 09:12:50;;;;;;;6.72;1.10;;;;;;;18.98;50.77;101456.16;6120381;23;20006;-89
2022/09/17 09:15:25;;;;;;;5.85;1.00;;;;;;;18.34;52.39;101463.81;6119012;23;20112;-89
2022/09/17 09:17:51;;;;;;;4.22;0.82;;;;;;;17.26;55.98;101450.69;6118271;23;20009;-89
2022/09/17 09:20:35;;;;;;;2.65;0.75;;;;;;;16.72;58.81;101444.88;6121123;23;20458;-89
2022/09/17 09:23:16;;;;;;;4.53;1.05;;;;;;;17.52;56.75;101458.97;6120292;23;20709;-89
2022/09/17 09:26:01;;;;;;;7.55;1.60;;;;;;;18.89;53.42;101456.78;6120689;23;20029;-89
2022/09/17 09:28:40;;;;;;;10.65;3.50;;;;;;;20.05;49.77;101447.09;6124127;23;20029;-88
2022/09/17 09:31:27;;;;;;;3.78;2.72;;;;;;;21.20;48.28;101457.56;6122784;23;20013;-88
2022/09/17 09:33:55;;;;;;;6.50;2.30;;;;;;;22.07;44.53;101466.16;6122767;23;20013;-89
2022/09/17 09:36:20;;;;;;;4.82;1.20;;;;;;;22.02;43.28;101444.13;6121129;23;20422;-89
2022/09/17 09:38:56;;;;;;;3.63;0.47;;;;;;;21.40;41.72;101464.13;6119294;23;20075;-89
2022/09/17 09:41:31;;;;;;;1.73;0.50;;;;;;;20.62;44.29;101465.41;6119792;23;20045;-89
2022/09/17 09:44:04;;;;;;;1.65;0.50;;;;;;;20.10;46.47;101468.25;6120528;23;20729;-89
2022/09/17 09:46:46;;;;;;;2.20;0.70;;;;;;;20.62;43.42;101459.19;6120547;23;20009;-89
2022/09/17 09:49:19;;;;;;;;;;;;;;;21.14;45.87;101463.41;6121073;23;20446;-89
2022/09/17 09:51:44;;;;;;;;;;;;;;;22.23;44.12;101472.06;6120340;23;19917;-89
2022/09/17 09:54:49;;;;;;;6.40;4.47;;;;;;;23.40;42.59;101450.78;6121057;23;20339;-89
2022/09/17 09:57:18;;;;;;;2.88;1.40;;;;;;;24.77;37.20;101461.41;6110545;23;20469;-89
2022/09/17 09:59:43;;;;;;;9.18;3.28;;;;;;;25.49;34.46;101451.22;6120512;23;20013;-89
2022/09/17 10:02:09;;;;;;;2.95;1.20;;;;;;;23.88;35.50;101446.78;6120597;23;20253;-89
2022/09/17 10:04:35;;;;;;;4.10;1.52;;;;;;;22.52;38.16;101456.31;6120673;23;20009;-89
2022/09/17 10:07:06;;;;;;;1.73;0.60;;;;;;;22.10;39.58;101455.13;6118873;23;20451;-90
2022/09/17 10:09:35;;;;;;;6.57;3.92;;;;;;;22.07;39.94;101455.41;6122050;23;20048;-91
2022/09/17 10:12:21;;;;;;;2.15;1.55;;;;;;;22.71;37.51;101461.06;6121593;23;20042;-90
2022/09/17 10:14:46;;;;;;;4.50;0.70;;;;;;;23.59;37.27;101446.53;6118586;23;20022;-89
2022/09/17 10:17:23;;;;;;;3.85;0.95;;;;;;;24.81;35.82;101454.72;6118322;23;20070;-90
2022/09/17 10:20:00;;;;;;;5.60;0.77;;;;;;;24.59;34.80;101461.19;6118931;23;20497;-91
2022/09/17 10:22:34;;;;;;;3.60;0.98;;;;;;;25.02;33.43;101456.44;6119991;23;20534;-90
2022/09/17 10:25:01;;;;;;;1.65;0.70;;;;;;;24.01;35.80;101457.34;6119095;23;20017;-91
2022/09/17 10:27:28;;;;;;;10.52;6.07;;;;;;;25.02;34.43;101460.00;6119999;23;20092;-91
2022/09/17 10:30:15;;;;;;;5.95;1.00;;;;;;;24.24;36.49;101458.88;6122349;23;20005;-91
2022/09/17 10:32:40;;;;;;;1.90;0.60;;;;;;;23.57;35.31;101440.41;6119212;23;20041;-91
2022/09/17 10:35:27;;;;;;;2.50;0.90;;;;;;;22.91;37.16;101463.00;6122125;23;20012;-93
2022/09/17 10:37:52;;;;;;;0.90;0.45;;;;;;;22.73;37.57;101447.44;6119508;23;20006;-92
2022/09/17 10:40:18;;;;;;;1.98;0.50;;;;;;;22.36;38.05;101456.66;6120955;23;20010;-92
2022/09/17 10:43:10;;;;;;;2.90;0.60;;;;;;;23.02;37.54;101445.06;6119980;23;20006;-92
2022/09/17 10:45:39;;;;;;;4.30;0.93;;;;;;;23.44;37.47;101443.28;6120323;23;20246;-92
2022/09/17 10:48:16;;;;;;;2.70;0.65;;;;;;;23.21;37.95;101444.38;6120319;23;20431;-93
2022/09/17 10:50:48;;;;;;;3.92;1.95;;;;;;;23.18;36.85;101450.91;6123261;23;20022;-91
2022/09/17 10:53:17;;;;;;;;;;;;;;;23.17;38.84;101458.16;6122295;23;20006;-93
2022/09/17 10:56:00;;;;;;;1.65;0.80;;;;;;;23.23;38.10;101442.44;6120260;23;19916;-92
2022/09/17 10:58:40;;;;;;;4.15;1.00;;;;;;;23.76;37.40;101440.56;6120443;23;20415;-92
2022/09/17 11:01:27;;;;;;;2.67;0.63;;;;;;;24.35;36.56;101439.88;6120570;23;20013;-92
2022/09/17 11:04:01;;;;;;;1.13;0.40;;;;;;;24.99;35.48;101444.03;6119197;23;20430;-92
2022/09/17 11:07:00;;;;;;;3.28;0.60;;;;;;;24.85;36.97;101433.63;6120153;23;20006;-92
2022/09/17 11:09:51;;;;;;;3.42;0.80;;;;;;;24.19;36.57;101434.13;6123468;23;20094;-94
2022/09/17 11:12:40;;;;;;;2.33;0.53;;;;;;;23.48;37.89;101438.50;6122068;23;20366;-93
2022/09/17 11:15:24;;;;;;;5.88;0.68;;;;;;;23.11;38.09;101434.34;6121597;23;20030;-93
2022/09/17 11:18:21;;;;;;;4.53;0.70;;;;;;;22.65;39.01;101434.56;6119128;23;20005;-93
2022/09/17 11:20:56;;;;;;;1.38;0.70;;;;;;;22.51;38.61;101440.22;6121017;23;20386;-94
2022/09/17 11:23:51;;;;;;;3.60;0.82;;;;;;;22.52;37.66;101423.06;6122438;23;20045;-95
2022/09/17 11:26:31;;;;;;;2.88;0.60;;;;;;;22.63;37.37;101423.06;6082911;23;20010;-94
2022/09/17 11:29:15;;;;;;;2.25;0.73;;;;;;;23.07;36.37;101432.03;6147633;23;20017;-93
2022/09/17 11:32:20;;;;;;;3.28;0.98;;;;;;;22.83;38.46;101426.81;6122848;23;20399;-94
2022/09/17 11:35:06;;;;;;;1.73;0.80;;;;;;;22.82;38.52;101431.38;6123186;23;20505;-94
2022/09/17 11:37:47;;;;;;;2.03;0.75;;;;;;;22.74;38.03;101419.50;6130983;23;20009;-94
2022/09/17 11:40:21;;;;;;;3.67;0.80;;;;;;;22.64;37.66;101428.34;6126157;23;20009;-94
2022/09/17 11:42:52;;;;;;;3.78;0.70;;;;;;;22.17;37.63;101413.31;6124386;23;20008;-94